Nearby METAR Reports

CWGD - Goderich (autob), Ontario, Canada
Distance from station: SW 47km
Updated: 08/18/2019 12:00am

 Wind from E
Wind: E 9 km/h
Temperature: 18°C
Dew Point: 16°C
Humidity: 88%
2019/08/18 04:00 CWGD 180400Z AUTO 09005KT 18/16 RMK AO1 SLP129 T01840155 51008
CWLS - Mount Forest(Mar, Ontario, Canada
Distance from station: ESE 53km
Updated: 08/18/2019 12:00am

 Wind from SSE
Wind: SSE 2 km/h
Temperature: 17°C
Dew Point: 15°C
Humidity: 88%
2019/08/18 04:00 CWLS 180400Z AUTO 15001KT 17/15 RMK AO1 SLP144 T01660150 51015
 
CYVV - Wiarton Air, Ontario, Canada
Distance from station: NNE 75km
Updated: 08/18/2019 12:00am
Overcast
Overcast
 Wind from SE
Wind: SE 11 km/h
Temperature: 16°C
Dew Point: 16°C
Humidity: 100%
Barometer: 1013.5 hPa
Clouds: Overcast
Visibility: 24 km
Cloud details: Partly cloudy 1219 m
Overcast 7620 m
2019/08/18 04:00 CYVV 180400Z 14006KT 15SM SCT040 OVC250 16/16 A2993 RMK SC3CS5 SLP137 DENSITY ALT 1100FT
CZEL - Elora Rcs, Ontario, Canada
Distance from station: ESE 93km
Updated: 08/18/2019 12:00am

 Wind from NNE
Wind: NNE 4 km/h
Temperature: 17°C
Dew Point: 15°C
Humidity: 88%
2019/08/18 04:00 CZEL 180400Z AUTO 03002KT 17/15 RMK AO1 SLP149 T01660154 51016
 
CWCO - Collingwood (aut, Ontario, Canada
Distance from station: ENE 104km
Updated: 08/18/2019 12:00am

 Wind from SSW
Wind: SSW 2 km/h
Temperature: 17°C
Dew Point: 16°C
Humidity: 94%
2019/08/18 04:00 CWCO 180400Z AUTO 21001KT 17/16 RMK AO1 SLP131 T01740157 53013
CYKF - Waterloo Well, Ontario, Canada
Distance from station: SE 107km
Updated: 08/18/2019 12:00am
Mostly cloudy
Mostly cloudy
 Wind from N
Wind: N 6 km/h
Temperature: 17°C
Dew Point: 17°C
Humidity: 100%
Barometer: 1014.6 hPa
Clouds: Mostly cloudy
Visibility: 14 km
Cloud details: Partly cloudy 1433 m
Partly cloudy 1981 m
Mostly cloudy 7620 m
2019/08/18 04:00 CYKF 180400Z AUTO 36003KT 340V050 9SM SCT047 SCT065 BKN250 17/17 A2996 RMK SLP145 DENSITY ALT 1500FT
 
KP58 - Port Hope, Michigan, USA
Distance from station: W 114km
Updated: 08/18/2019 12:51am

 Wind from S
Wind: S 7 km/h
Temperature: 21°C
Dew Point: 19°C
Humidity: 88%
Barometer: 1012.9 hPa
2019/08/18 04:51 KP58 180451Z AUTO 18004KT 21/19 A2991 RMK AO1 SLP121 T02110189 4
CYBN - Borden, Ontario, Canada
Distance from station: E 118km
Updated: 08/18/2019 12:50am
Clear
Clear
 Wind from calm
Wind: Calm
Temperature: 14°C
Dew Point: 14°C
Humidity: 100%
Barometer: 1014.2 hPa
Clouds: Clear
Visibility: 0.2 km
2019/08/18 04:50 CYBN 180450Z AUTO 00000KT 1/8SM CLR 14/14 A2995 RMK VSBY VRBL 0.1V4.0
 
CYXU - London Airport, Ontario, Canada
Distance from station: S 123km
Updated: 08/18/2019 12:00am
Overcast
Overcast
 Wind from ESE
Wind: ESE 6 km/h
Temperature: 21°C
Dew Point: 19°C
Humidity: 88%
Barometer: 1014.2 hPa
Clouds: Overcast
Visibility: 24 km
Cloud details: Mostly cloudy 2438 m
Overcast 6706 m
2019/08/18 04:00 CYXU 180400Z 12003KT 15SM BKN080 OVC220 21/19 A2995 RMK AC6CI2 SLP139 DENSITY ALT 1800FT
CXET - Egbert Cs, Ontario, Canada
Distance from station: E 128km
Updated: 08/18/2019 12:00am

 Wind from S
Wind: S 7 km/h
Temperature: 17°C
Dew Point: 16°C
Humidity: 94%
2019/08/18 04:00 CXET 180400Z AUTO 19004KT 17/16 RMK AO1 SLP143 T01740159 53016
 
CWMZ - Western Isl (map, Ontario, Canada
Distance from station: NE 129km
Updated: 08/18/2019 12:00am

 Wind from SW
Wind: SW 17 km/h
Temperature: 21°C
Dew Point: 18°C
Humidity: 83%
2019/08/18 04:00 CWMZ 180400Z AUTO 22009KT 21/18 RMK AO1 SLP130 T02090182 53011
KBAX - Bad Axe, Michigan, USA
Distance from station: WSW 133km
Updated: 08/18/2019 12:35am
Partly cloudy
Partly cloudy
 Wind from SE
Wind: SE 6 km/h
Temperature: 20°C
Dew Point: 18°C
Humidity: 88%
Barometer: 1013.2 hPa
Clouds: Partly cloudy
Visibility: 16 km
Cloud details: Partly cloudy 1981 m
Partly cloudy 2896 m
2019/08/18 04:35 KBAX 180435Z AUTO 14003KT 10SM SCT065 SCT095 20/18 A2992 RMK AO2 T01970176
 
CWWX - Cove Island (map, Ontario, Canada
Distance from station: NNW 137km
Updated: 08/18/2019 12:00am

 Wind from WNW
Wind: WNW 7 km/h
Temperature: 19°C
Dew Point: 17°C
Humidity: 88%
2019/08/18 04:00 CWWX 180400Z AUTO 29004KT 19/17 RMK AO1 SLP126 T01870167 53008
CYZR - Sarnia Airport, Ontario, Canada
Distance from station: SSW 144km
Updated: 08/18/2019 12:00am
Light rain, Overcast
Light rain, Overcast
 Wind from WSW
Wind: WSW 11 km/h
Temperature: 23°C
Dew Point: 21°C
Humidity: 89%
Barometer: 1013.2 hPa
Summary: Light rain
Clouds: Overcast
Visibility: 14 km
Cloud details: Few Clouds 3048 m
Overcast 3658 m
2019/08/18 04:00 CYZR 180400Z AUTO 24006KT 9SM -RA FEW100 OVC120 23/21 A2992 RMK LTNG DIST SW W SLP130 DENSITY ALT 1600FT
 
CXHM - Hamilton Rbg Cs, Ontario, Canada
Distance from station: SE 150km
Updated: 08/18/2019 12:00am

 Wind from WNW
Wind: WNW 2 km/h
2019/08/18 04:00 CXHM 180400Z AUTO 30001KT RMK AO1 51016
CYYZ - Toronto/Pearson, Ontario, Canada
Distance from station: ESE 150km
Updated: 08/18/2019 12:00am
Few Clouds
Few Clouds
 Wind from WNW
Wind: WNW 6 km/h
Temperature: 22°C
Dew Point: 16°C
Humidity: 69%
Barometer: 1014.2 hPa
Clouds: Few Clouds
Visibility: 24 km
Cloud details: Few Clouds 1676 m
2019/08/18 04:00 CYYZ 180400Z 30003KT 15SM FEW055 22/16 A2995 RMK SC1 SC TR SLP140 DENSITY ALT 1500FT
 
CXBI - Barrie-Oro, Ontario, Canada
Distance from station: ENE 151km
Updated: 08/18/2019 12:00am

 Wind from calm
Wind: Calm
Temperature: 15°C
Dew Point: 14°C
Humidity: 94%
2019/08/18 04:00 CXBI 180400Z AUTO 00000KT 15/14 RMK AO1 SLP149 T01460136 53015
CXDI - Delhi Cs (aut), Ontario, Canada
Distance from station: SSE 154km
Updated: 08/18/2019 12:00am

 Wind from calm
Wind: Calm
Temperature: 19°C
Dew Point: 18°C
Humidity: 94%
2019/08/18 04:00 CXDI 180400Z AUTO 00000KT 19/18 RMK AO1 SLP134 T01920175 50012
 
CWWB - Burlington Piers, Ontario, Canada
Distance from station: SE 157km
Updated: 08/18/2019 12:00am

 Wind from W
Wind: W 2 km/h
Temperature: 23°C
Dew Point: 18°C
Humidity: 74%
2019/08/18 04:00 CWWB 180400Z AUTO 26001KT 23/18 RMK AO1 SLP134 T02280180 51017
CYHM - Hamilton Airport, Ontario, Canada
Distance from station: SE 157km
Updated: 08/18/2019 12:00am
Mostly cloudy
Mostly cloudy
 Wind from calm
Wind: Calm
Temperature: 20°C
Dew Point: 19°C
Humidity: 94%
Barometer: 1014.2 hPa
Clouds: Mostly cloudy
Visibility: 24 km
Cloud details: Mostly cloudy 1524 m
Mostly cloudy 7315 m
2019/08/18 04:00 CYHM 180400Z 00000KT 15SM BKN050 BKN240 20/19 A2995 RMK SC5CI2 SLP141 DENSITY ALT 1500FT